Time;durP1;ratioP1;P1;durP2;ratioP2;P2;SDS_P1;SDS_P2;PMS_P1;PMS_P2;Temp;Humidity;BMP_temperature;BMP_pressure;BME280_temperature;BME280_humidity;BME280_pressure;Samples;Min_cycle;Max_cycle;Signal;HPM_P1;HPM_P2
2023/10/30 00:01:38;;;;;;;1.63;0.52;;;;;10.00;93116.00;;;;7394592;19;20698;-79
2023/10/30 00:04:13;;;;;;;0.75;0.40;;;;;9.90;93132.00;;;;7394953;19;20203;-78
2023/10/30 00:06:41;;;;;;;1.05;0.60;;;;;10.00;93130.00;;;;7396705;19;20218;-77
2023/10/30 00:09:28;;;;;;;1.65;0.50;;;;;9.90;93120.00;;;;7391306;19;20145;-78
2023/10/30 00:12:04;;;;;;;0.50;0.50;;;;;9.90;93117.00;;;;7396965;19;20618;-76
2023/10/30 00:14:38;;;;;;;0.65;0.50;;;;;10.00;93127.00;;;;7396959;19;20575;-77
2023/10/30 00:17:06;;;;;;;0.68;0.43;;;;;9.90;93104.00;;;;7396396;19;20505;-78
2023/10/30 00:19:50;;;;;;;2.70;0.50;;;;;9.90;93114.00;;;;7394539;19;20116;-76
2023/10/30 00:22:17;;;;;;;0.38;0.38;;;;;9.80;93116.00;;;;7396320;19;20138;-76
2023/10/30 00:24:51;;;;;;;1.30;0.40;;;;;9.70;93119.00;;;;7395921;19;20583;-77
2023/10/30 00:27:19;;;;;;;0.20;0.20;;;;;9.70;93122.00;;;;7396315;19;20132;-77
2023/10/30 00:29:47;;;;;;;0.70;0.50;;;;;9.70;93120.00;;;;7400890;19;20129;-77
2023/10/30 00:32:21;;;;;;;0.40;0.32;;;;;9.70;93132.00;;;;7404017;19;20151;-77
2023/10/30 00:34:55;;;;;;;3.13;0.40;;;;;9.90;93129.00;;;;7400385;19;20133;-76
2023/10/30 00:37:23;;;;;;;1.47;0.60;;;;;9.90;93138.00;;;;7403959;19;20588;-77
2023/10/30 00:39:57;;;;;;;1.10;0.68;;;;;9.90;93124.00;;;;7403040;19;20600;-78
2023/10/30 00:42:27;;;;;;;4.78;0.65;;;;;9.90;93141.00;;;;7401000;19;20611;-76
2023/10/30 00:45:08;;;;;;;2.78;0.90;;;;;9.90;93123.00;;;;7401734;19;20149;-77
2023/10/30 00:47:44;;;;;;;1.33;0.57;;;;;9.80;93137.00;;;;7402672;19;20486;-78
2023/10/30 00:50:18;;;;;;;4.53;0.65;;;;;9.80;93133.00;;;;7401412;19;20593;-78
2023/10/30 00:52:56;;;;;;;0.60;0.55;;;;;9.70;93139.00;;;;7401815;19;20488;-76
2023/10/30 00:55:24;;;;;;;1.40;1.30;;;;;9.70;93135.00;;;;7401323;19;20140;-75
2023/10/30 00:57:58;;;;;;;0.90;0.45;;;;;9.80;93153.00;;;;7401961;19;20604;-78
2023/10/30 01:00:26;;;;;;;1.50;0.40;;;;;9.70;93134.00;;;;7401450;19;20647;-75
2023/10/30 01:03:01;;;;;;;0.50;0.50;;;;;9.70;93161.00;;;;7402905;19;20572;-77
2023/10/30 01:05:28;;;;;;;0.97;0.50;;;;;9.60;93158.00;;;;7402206;19;20212;-77
2023/10/30 01:07:58;;;;;;;2.13;0.43;;;;;9.60;93155.00;;;;7387531;19;20478;-77
2023/10/30 01:10:56;;;;;;;1.70;0.70;;;;;9.40;93164.00;;;;7397783;19;20612;-77
2023/10/30 01:13:33;;;;;;;4.18;0.70;;;;;9.60;93162.00;;;;7401764;19;20133;-77
2023/10/30 01:16:07;;;;;;;2.33;0.63;;;;;9.60;93145.00;;;;7400799;19;20133;-76
2023/10/30 01:18:37;;;;;;;1.00;0.50;;;;;9.60;93153.00;;;;7402133;19;20136;-76
2023/10/30 01:21:20;;;;;;;0.40;0.40;;;;;9.40;93144.00;;;;7400851;19;20577;-75
2023/10/30 01:23:57;;;;;;;0.38;0.38;;;;;9.40;93157.00;;;;7400983;19;20136;-76
2023/10/30 01:26:24;;;;;;;1.73;0.68;;;;;9.40;93151.00;;;;7400196;19;20141;-76
2023/10/30 01:29:01;;;;;;;0.30;0.30;;;;;9.30;93153.00;;;;7401337;19;20138;-77
2023/10/30 01:31:28;;;;;;;1.60;0.55;;;;;9.30;93158.00;;;;7401842;19;20143;-77
2023/10/30 01:33:56;;;;;;;0.60;0.50;;;;;9.30;93153.00;;;;7401095;19;20217;-75
2023/10/30 01:36:30;;;;;;;6.13;0.77;;;;;9.20;93155.00;;;;7400175;19;20204;-77
2023/10/30 01:38:58;;;;;;;0.85;0.65;;;;;9.20;93164.00;;;;7401144;19;20149;-75
2023/10/30 01:41:32;;;;;;;2.43;0.63;;;;;9.10;93147.00;;;;7401338;19;20472;-75
2023/10/30 01:44:00;;;;;;;3.70;0.63;;;;;9.10;93158.00;;;;7401577;19;20566;-77
2023/10/30 01:46:34;;;;;;;0.85;0.60;;;;;9.10;93157.00;;;;7399589;19;20583;-75
2023/10/30 01:49:10;;;;;;;1.08;0.30;;;;;9.00;93159.00;;;;7399747;19;20591;-76
2023/10/30 01:51:47;;;;;;;2.70;0.50;;;;;9.00;93155.00;;;;7400598;19;20458;-76
2023/10/30 01:54:15;;;;;;;2.13;0.83;;;;;8.90;93153.00;;;;7399245;19;20141;-75
2023/10/30 01:56:49;;;;;;;1.30;0.60;;;;;8.90;93139.00;;;;7399358;19;20474;-77
2023/10/30 01:59:23;;;;;;;2.70;0.63;;;;;8.90;93143.00;;;;7399015;19;20152;-76
2023/10/30 02:01:57;;;;;;;1.60;0.60;;;;;8.90;93146.00;;;;7399057;19;20466;-74
2023/10/30 02:04:26;;;;;;;2.10;0.80;;;;;8.90;93129.00;;;;7398774;19;20176;-76
2023/10/30 02:07:00;;;;;;;2.70;0.73;;;;;8.80;93136.00;;;;7400041;19;20591;-74
2023/10/30 02:09:28;;;;;;;1.77;0.93;;;;;8.80;93134.00;;;;7394987;19;20168;-75
2023/10/30 02:12:03;;;;;;;4.47;0.77;;;;;8.70;93133.00;;;;7398247;19;20484;-75
2023/10/30 02:14:38;;;;;;;3.73;0.53;;;;;8.70;93134.00;;;;7400603;19;20152;-75
2023/10/30 02:17:06;;;;;;;8.73;1.43;;;;;8.70;93129.00;;;;7399221;19;20145;-77
2023/10/30 02:19:49;;;;;;;19.67;1.20;;;;;8.70;93129.00;;;;7400194;19;20132;-81
2023/10/30 02:22:23;;;;;;;1.07;0.63;;;;;8.70;93134.00;;;;7397618;19;20149;-75
2023/10/30 02:24:59;;;;;;;1.40;0.70;;;;;8.60;93139.00;;;;7399638;19;20144;-74
2023/10/30 02:27:26;;;;;;;5.50;0.70;;;;;8.60;93137.00;;;;7400146;19;20124;-75
2023/10/30 02:30:00;;;;;;;0.97;0.60;;;;;8.60;93133.00;;;;7398016;19;20133;-77
2023/10/30 02:32:36;;;;;;;1.70;0.73;;;;;8.50;93136.00;;;;7397765;19;20140;-80
2023/10/30 02:35:12;;;;;;;2.67;0.80;;;;;8.60;93139.00;;;;7399661;19;20132;-77
2023/10/30 02:37:40;;;;;;;0.70;0.60;;;;;8.50;93131.00;;;;7397729;19;20149;-75
2023/10/30 02:40:17;;;;;;;2.27;0.60;;;;;8.60;93124.00;;;;7398099;19;20144;-78
2023/10/30 02:42:51;;;;;;;1.17;0.43;;;;;8.50;93129.00;;;;7397476;19;20641;-79
2023/10/30 02:45:19;;;;;;;2.30;0.60;;;;;8.50;93124.00;;;;7397808;19;20155;-78
2023/10/30 02:47:53;;;;;;;2.70;0.73;;;;;8.60;93130.00;;;;7396746;19;20148;-74
2023/10/30 02:50:21;;;;;;;1.03;0.70;;;;;8.60;93126.00;;;;7396643;19;20477;-76
2023/10/30 02:52:50;;;;;;;4.00;0.70;;;;;8.60;93134.00;;;;7399897;19;20137;-76
2023/10/30 02:55:25;;;;;;;3.23;0.67;;;;;8.60;93129.00;;;;7397292;19;20145;-75
2023/10/30 02:57:53;;;;;;;3.27;0.90;;;;;8.60;93123.00;;;;7397976;19;20139;-74
2023/10/30 03:00:27;;;;;;;6.63;1.37;;;;;8.80;93116.00;;;;7398552;19;20161;-75
2023/10/30 03:02:55;;;;;;;0.77;0.60;;;;;8.70;93110.00;;;;7396923;19;20151;-76
2023/10/30 03:05:29;;;;;;;2.87;0.80;;;;;8.70;93114.00;;;;7397131;19;20481;-73
2023/10/30 03:08:03;;;;;;;1.55;0.88;;;;;8.70;93112.00;;;;7399189;19;20598;-78
2023/10/30 03:10:44;;;;;;;6.70;0.90;;;;;8.90;93114.00;;;;7394520;19;20231;-77
2023/10/30 03:13:25;;;;;;;1.93;0.83;;;;;8.90;93105.00;;;;7397480;19;20585;-76
2023/10/30 03:15:59;;;;;;;2.47;0.80;;;;;8.90;93099.00;;;;7396963;19;20129;-79
2023/10/30 03:18:34;;;;;;;2.90;0.60;;;;;8.90;93096.00;;;;7398163;19;20510;-77
2023/10/30 03:21:03;;;;;;;1.23;0.60;;;;;8.90;93103.00;;;;7398443;19;20627;-77
2023/10/30 03:23:37;;;;;;;1.60;0.77;;;;;8.90;93089.00;;;;7397890;19;20133;-77
2023/10/30 03:26:08;;;;;;;3.00;0.60;;;;;8.80;93090.00;;;;7396464;19;20479;-77
2023/10/30 03:28:41;;;;;;;1.90;0.50;;;;;8.80;93099.00;;;;7396762;19;20140;-78
2023/10/30 03:31:15;;;;;;;1.40;0.70;;;;;8.80;93087.00;;;;7396463;19;20148;-77
2023/10/30 03:33:50;;;;;;;5.13;0.90;;;;;8.80;93098.00;;;;7396796;19;20644;-76
2023/10/30 03:36:28;;;;;;;3.53;0.80;;;;;8.90;93095.00;;;;7397938;19;20587;-75
2023/10/30 03:38:57;;;;;;;2.07;0.90;;;;;9.00;93100.00;;;;7397626;19;20137;-77
2023/10/30 03:41:32;;;;;;;2.75;0.70;;;;;9.00;93087.00;;;;7396892;19;20204;-76
2023/10/30 03:44:02;;;;;;;2.07;0.50;;;;;9.00;93090.00;;;;7397190;19;20564;-76
2023/10/30 03:46:37;;;;;;;2.83;0.80;;;;;9.00;93089.00;;;;7397468;19;20124;-76
2023/10/30 03:49:04;;;;;;;2.30;0.60;;;;;9.00;93079.00;;;;7396879;19;20131;-77
2023/10/30 03:51:38;;;;;;;1.53;0.80;;;;;9.10;93078.00;;;;7396265;19;20137;-76
2023/10/30 03:54:12;;;;;;;0.50;0.50;;;;;9.10;93074.00;;;;7396412;19;20141;-76
2023/10/30 03:56:48;;;;;;;1.63;0.70;;;;;9.10;93077.00;;;;7396099;19;20580;-79
2023/10/30 03:59:16;;;;;;;0.60;0.60;;;;;9.10;93076.00;;;;7396247;19;20502;-77
2023/10/30 04:01:43;;;;;;;2.93;0.80;;;;;9.10;93070.00;;;;7395101;19;20154;-78
2023/10/30 04:04:19;;;;;;;1.40;0.70;;;;;9.10;93070.00;;;;7402382;19;20243;-76
2023/10/30 04:06:47;;;;;;;0.63;0.53;;;;;9.00;93074.00;;;;7404012;19;20540;-78
2023/10/30 04:09:14;;;;;;;1.08;0.60;;;;;9.20;93081.00;;;;7398969;19;20136;-77
2023/10/30 04:11:55;;;;;;;1.97;0.70;;;;;9.10;93074.00;;;;7402419;19;20148;-78
2023/10/30 04:14:32;;;;;;;3.43;0.80;;;;;9.10;93083.00;;;;7404260;19;20140;-77
2023/10/30 04:17:08;;;;;;;0.43;0.43;;;;;9.10;93076.00;;;;7402451;19;20137;-77
2023/10/30 04:19:38;;;;;;;1.27;0.60;;;;;9.20;93082.00;;;;7402837;19;20173;-76
2023/10/30 04:22:12;;;;;;;0.50;0.50;;;;;9.20;93077.00;;;;7404006;19;20129;-78
2023/10/30 04:24:40;;;;;;;4.53;0.70;;;;;9.20;93086.00;;;;7403316;19;20592;-78
2023/10/30 04:27:14;;;;;;;1.27;0.80;;;;;9.20;93048.00;;;;7403528;19;20132;-76
2023/10/30 04:29:45;;;;;;;1.80;0.70;;;;;9.10;93099.00;;;;7403150;19;20164;-78
2023/10/30 04:32:21;;;;;;;2.70;0.70;;;;;9.10;93095.00;;;;7402083;19;20136;-76
2023/10/30 04:34:49;;;;;;;0.68;0.50;;;;;9.20;93094.00;;;;7402558;19;20146;-77
2023/10/30 04:37:23;;;;;;;0.60;0.60;;;;;9.20;93081.00;;;;7402345;19;20168;-78
2023/10/30 04:39:53;;;;;;;2.00;0.70;;;;;9.20;93083.00;;;;7402344;19;20450;-78
2023/10/30 04:42:28;;;;;;;1.43;0.50;;;;;9.20;93093.00;;;;7402450;19;20136;-77
2023/10/30 04:45:04;;;;;;;1.95;0.77;;;;;9.30;93073.00;;;;7403122;19;20491;-78
2023/10/30 04:47:38;;;;;;;1.40;0.83;;;;;9.30;93068.00;;;;7402362;19;20121;-78
2023/10/30 04:50:07;;;;;;;2.43;0.80;;;;;9.30;93075.00;;;;7403199;19;20140;-76
2023/10/30 04:52:41;;;;;;;2.13;1.07;;;;;9.30;93087.00;;;;7403391;19;20136;-77
2023/10/30 04:55:17;;;;;;;3.35;0.90;;;;;9.40;93089.00;;;;7401009;19;20132;-76
2023/10/30 04:57:46;;;;;;;1.97;1.10;;;;;9.40;93091.00;;;;7401882;19;20477;-77
2023/10/30 05:00:21;;;;;;;1.75;1.42;;;;;9.40;93059.00;;;;7402325;19;20128;-76
2023/10/30 05:02:50;;;;;;;1.75;1.30;;;;;9.30;93048.00;;;;7398777;19;20171;-77
2023/10/30 05:05:24;;;;;;;3.40;1.70;;;;;9.30;93062.00;;;;7402494;19;20128;-78
2023/10/30 05:07:51;;;;;;;3.60;1.77;;;;;9.30;93066.00;;;;7402332;19;20148;-77
2023/10/30 05:10:33;;;;;;;6.78;2.40;;;;;9.30;93070.00;;;;7400862;19;20256;-77
2023/10/30 05:13:09;;;;;;;8.67;2.97;;;;;9.30;93044.00;;;;7398070;19;20133;-78
2023/10/30 05:15:42;;;;;;;4.88;3.28;;;;;9.30;93036.00;;;;7400105;19;20142;-79
2023/10/30 05:18:22;;;;;;;6.63;3.60;;;;;9.20;93044.00;;;;7400628;19;20141;-76
2023/10/30 05:20:56;;;;;;;5.40;4.00;;;;;9.20;93030.00;;;;7402828;19;20493;-79
2023/10/30 05:23:31;;;;;;;6.65;4.13;;;;;9.20;93036.00;;;;7401665;19;20153;-79
2023/10/30 05:25:59;;;;;;;9.13;4.47;;;;;9.20;93025.00;;;;7401604;19;20470;-79
2023/10/30 05:28:34;;;;;;;8.13;4.70;;;;;9.20;93026.00;;;;7400656;19;20180;-79
2023/10/30 05:31:12;;;;;;;7.10;5.10;;;;;9.20;93038.00;;;;7398133;19;20489;-78
2023/10/30 05:33:40;;;;;;;9.40;4.90;;;;;9.20;93029.00;;;;7386846;19;20153;-76
2023/10/30 05:36:10;;;;;;;11.87;5.87;;;;;9.30;93032.00;;;;7381254;19;20214;-78
2023/10/30 05:38:44;;;;;;;7.53;6.15;;;;;9.30;93010.00;;;;7389313;19;20131;-78
2023/10/30 05:41:17;;;;;;;15.33;7.63;;;;;9.30;93017.00;;;;7389120;19;20516;-77
2023/10/30 05:43:53;;;;;;;26.63;9.95;;;;;9.30;93018.00;;;;7389271;19;20152;-77
2023/10/30 05:46:27;;;;;;;214.00;17.50;;;;;9.40;93004.00;;;;7386031;19;20153;-77
2023/10/30 05:49:01;;;;;;;421.93;24.90;;;;;9.40;93017.00;;;;7389150;19;20139;-77
2023/10/30 05:51:29;;;;;;;31.33;10.00;;;;;9.30;93025.00;;;;7388999;19;20503;-76
2023/10/30 05:54:04;;;;;;;27.10;9.33;;;;;9.40;93024.00;;;;7387128;19;20131;-76
2023/10/30 05:56:39;;;;;;;113.23;13.00;;;;;9.40;93030.00;;;;7388027;19;20153;-77
2023/10/30 05:59:13;;;;;;;325.43;22.13;;;;;9.50;93033.00;;;;7388509;19;20147;-77
2023/10/30 06:01:48;;;;;;;332.02;23.35;;;;;9.50;93044.00;;;;7386874;19;20668;-75
2023/10/30 06:04:24;;;;;;;30.00;10.18;;;;;9.50;93053.00;;;;7387955;19;20145;-76
2023/10/30 06:06:58;;;;;;;14.45;8.88;;;;;9.40;93042.00;;;;7388825;19;21341;-77
2023/10/30 06:09:41;;;;;;;15.52;9.55;;;;;9.40;93044.00;;;;7384743;19;20132;-77
2023/10/30 06:12:23;;;;;;;35.20;10.90;;;;;9.30;93045.00;;;;7388046;19;20580;-77
2023/10/30 06:14:59;;;;;;;146.97;16.97;;;;;9.30;93042.00;;;;7388096;19;20129;-76
2023/10/30 06:17:27;;;;;;;14.52;9.05;;;;;9.30;93042.00;;;;7388830;19;20133;-77
2023/10/30 06:20:03;;;;;;;14.63;8.27;;;;;9.20;93045.00;;;;7388506;19;20149;-76
2023/10/30 06:22:32;;;;;;;13.05;8.10;;;;;9.20;93042.00;;;;7388502;19;20593;-77
2023/10/30 06:25:07;;;;;;;19.33;8.45;;;;;9.20;93038.00;;;;7385825;19;20484;-76
2023/10/30 06:27:35;;;;;;;12.77;8.37;;;;;9.10;93041.00;;;;7389284;19;20125;-77
2023/10/30 06:30:12;;;;;;;14.30;8.10;;;;;9.00;93048.00;;;;7387152;19;20521;-77
2023/10/30 06:32:47;;;;;;;9.33;7.13;;;;;9.00;93047.00;;;;7386390;19;20139;-75
2023/10/30 06:35:22;;;;;;;11.63;7.23;;;;;9.00;93038.00;;;;7387811;19;20132;-77
2023/10/30 06:37:50;;;;;;;15.27;7.73;;;;;9.00;93040.00;;;;7386574;19;20486;-74
2023/10/30 06:40:24;;;;;;;14.33;8.10;;;;;9.20;93035.00;;;;7387422;19;20469;-76
2023/10/30 06:42:56;;;;;;;13.10;8.20;;;;;9.30;93026.00;;;;7385228;19;20152;-78
2023/10/30 06:45:30;;;;;;;14.67;8.90;;;;;9.30;93016.00;;;;7386576;19;20208;-78
2023/10/30 06:47:59;;;;;;;16.02;10.05;;;;;9.50;93025.00;;;;7383177;19;20640;-75
2023/10/30 06:50:34;;;;;;;14.70;10.77;;;;;9.80;93021.00;;;;7385973;19;20136;-77
2023/10/30 06:53:09;;;;;;;18.57;10.23;;;;;10.00;93022.00;;;;7386206;19;20143;-77
2023/10/30 06:55:39;;;;;;;16.00;8.65;;;;;10.10;93017.00;;;;7380916;19;20193;-77
2023/10/30 06:58:13;;;;;;;18.25;10.30;;;;;10.20;93019.00;;;;7382707;19;20128;-78
2023/10/30 07:00:47;;;;;;;12.85;8.82;;;;;10.60;93027.00;;;;7384147;19;20153;-78
2023/10/30 07:03:21;;;;;;;12.20;8.23;;;;;10.50;93040.00;;;;7385103;19;20172;-76
2023/10/30 07:05:51;;;;;;;14.05;8.00;;;;;10.40;93041.00;;;;7384149;19;20548;-77
2023/10/30 07:08:24;;;;;;;9.85;7.55;;;;;10.20;93034.00;;;;7380656;19;20503;-77
2023/10/30 07:10:59;;;;;;;15.03;8.00;;;;;10.10;93026.00;;;;7385049;19;20555;-78
2023/10/30 07:13:43;;;;;;;13.57;7.30;;;;;10.30;93032.00;;;;7381979;19;20585;-79
2023/10/30 07:16:14;;;;;;;12.10;7.30;;;;;10.20;93022.00;;;;7384598;19;20683;-77
2023/10/30 07:18:50;;;;;;;10.45;7.40;;;;;10.10;93028.00;;;;7383738;19;20547;-77
2023/10/30 07:21:24;;;;;;;10.10;7.88;;;;;10.30;93028.00;;;;7383679;19;20136;-76
2023/10/30 07:23:52;;;;;;;13.20;8.88;;;;;10.50;93031.00;;;;7384100;19;22683;-76
2023/10/30 07:26:27;;;;;;;12.23;9.27;;;;;10.40;93028.00;;;;7383655;19;20470;-78
2023/10/30 07:29:01;;;;;;;13.90;9.68;;;;;10.40;93020.00;;;;7384688;19;20128;-78
2023/10/30 07:31:35;;;;;;;14.43;10.35;;;;;10.40;93013.00;;;;7383660;19;20583;-78
2023/10/30 07:34:10;;;;;;;15.48;9.90;;;;;10.40;93014.00;;;;7384804;19;20136;-77
2023/10/30 07:36:37;;;;;;;19.42;11.00;;;;;10.40;93014.00;;;;7384477;19;20190;-80
2023/10/30 07:39:11;;;;;;;14.63;11.35;;;;;10.30;93024.00;;;;7389974;19;20483;-77
2023/10/30 07:41:40;;;;;;;17.23;10.63;;;;;10.40;93010.00;;;;7390619;19;20129;-77
2023/10/30 07:44:18;;;;;;;14.95;11.05;;;;;10.40;93013.00;;;;7387883;19;20136;-76
2023/10/30 07:46:55;;;;;;;19.20;11.35;;;;;10.40;93014.00;;;;7389403;19;20618;-78
2023/10/30 07:49:31;;;;;;;15.65;11.40;;;;;10.20;93014.00;;;;7391140;19;20137;-79
2023/10/30 07:52:10;;;;;;;14.63;10.95;;;;;10.20;93016.00;;;;7390993;19;20143;-77
2023/10/30 07:54:44;;;;;;;13.55;10.80;;;;;10.30;93013.00;;;;7390494;19;20603;-76
2023/10/30 07:57:18;;;;;;;15.60;11.90;;;;;10.20;93012.00;;;;7391133;19;20153;-76
2023/10/30 07:59:47;;;;;;;15.23;11.23;;;;;10.40;93008.00;;;;7388992;19;20224;-76
2023/10/30 08:02:21;;;;;;;18.02;11.70;;;;;10.60;93014.00;;;;7390349;19;20212;-76
2023/10/30 08:04:48;;;;;;;16.60;11.55;;;;;10.60;93015.00;;;;7389051;19;20152;-77
2023/10/30 08:07:23;;;;;;;18.58;12.00;;;;;10.30;93012.00;;;;7390469;19;20631;-76
2023/10/30 08:09:51;;;;;;;13.30;10.65;;;;;10.30;93014.00;;;;7388834;19;20149;-76
2023/10/30 08:12:32;;;;;;;16.02;11.43;;;;;10.30;93006.00;;;;7390554;19;20479;-76
2023/10/30 08:15:07;;;;;;;18.40;12.82;;;;;10.30;93008.00;;;;7390511;19;20161;-78
2023/10/30 08:17:36;;;;;;;14.40;11.73;;;;;10.50;93010.00;;;;7391027;19;20174;-76
2023/10/30 08:20:11;;;;;;;15.32;11.48;;;;;10.50;93007.00;;;;7388803;19;20136;-76
2023/10/30 08:22:45;;;;;;;18.13;12.63;;;;;10.70;92995.00;;;;7389930;19;20133;-77
2023/10/30 08:25:19;;;;;;;16.73;12.35;;;;;11.40;92997.00;;;;7388535;19;20145;-77
2023/10/30 08:27:53;;;;;;;14.65;11.85;;;;;11.80;92992.00;;;;7389973;19;20195;-78
2023/10/30 08:30:28;;;;;;;15.88;12.18;;;;;11.70;92994.00;;;;7391254;19;20488;-79
2023/10/30 08:33:05;;;;;;;14.65;10.82;;;;;11.50;92992.00;;;;7391404;19;20596;-76
2023/10/30 08:35:39;;;;;;;15.40;11.48;;;;;11.20;92985.00;;;;7389979;19;20132;-78
2023/10/30 08:38:13;;;;;;;12.82;10.18;;;;;10.90;92979.00;;;;7389444;19;20196;-77
2023/10/30 08:40:46;;;;;;;11.50;10.15;;;;;11.00;92992.00;;;;7389817;19;20151;-74
2023/10/30 08:43:15;;;;;;;16.45;9.80;;;;;11.10;92984.00;;;;7390442;19;20165;-76
2023/10/30 08:45:50;;;;;;;13.52;9.77;;;;;11.20;92983.00;;;;7389022;19;20228;-75
2023/10/30 08:48:17;;;;;;;12.32;10.10;;;;;11.40;92968.00;;;;7386952;19;20137;-73
2023/10/30 08:50:52;;;;;;;11.48;9.88;;;;;11.90;92978.00;;;;7389508;19;20136;-75
2023/10/30 08:53:19;;;;;;;11.27;9.95;;;;;12.30;92966.00;;;;7387621;19;20608;-75
2023/10/30 08:55:54;;;;;;;16.23;10.48;;;;;12.70;92969.00;;;;7388869;19;20176;-76
2023/10/30 08:58:24;;;;;;;10.25;8.63;;;;;12.90;92966.00;;;;7389589;19;20129;-74
2023/10/30 09:00:59;;;;;;;12.80;9.10;;;;;13.20;92972.00;;;;7387337;19;20175;-75
2023/10/30 09:03:27;;;;;;;10.68;8.43;;;;;13.20;92968.00;;;;7389548;19;20588;-75
2023/10/30 09:06:05;;;;;;;10.23;8.77;;;;;13.40;92954.00;;;;7389273;19;20621;-76
2023/10/30 09:08:33;;;;;;;9.38;8.13;;;;;13.50;92958.00;;;;7388772;19;20133;-73
2023/10/30 09:11:14;;;;;;;9.30;8.05;;;;;13.30;92951.00;;;;7388788;19;20179;-74
2023/10/30 09:13:46;;;;;;;10.35;8.20;;;;;13.50;92947.00;;;;7386625;19;20180;-74
2023/10/30 09:16:21;;;;;;;8.88;7.50;;;;;13.70;92947.00;;;;7387483;19;20572;-74
2023/10/30 09:18:56;;;;;;;10.68;8.07;;;;;13.70;92941.00;;;;7387908;19;20693;-73
2023/10/30 09:21:24;;;;;;;8.40;7.50;;;;;13.60;92947.00;;;;7387752;19;20538;-74
2023/10/30 09:24:03;;;;;;;9.13;6.53;;;;;14.00;92949.00;;;;7387240;19;20144;-74
2023/10/30 09:26:37;;;;;;;9.25;7.65;;;;;14.40;92942.00;;;;7386904;19;20485;-75
2023/10/30 09:29:16;;;;;;;9.43;6.95;;;;;14.40;92942.00;;;;7387375;19;20149;-75
2023/10/30 09:31:51;;;;;;;7.50;6.70;;;;;14.40;92946.00;;;;7388353;19;20620;-76
2023/10/30 09:34:19;;;;;;;9.60;7.13;;;;;14.10;92941.00;;;;7387839;19;20133;-73
2023/10/30 09:36:59;;;;;;;7.40;6.38;;;;;13.90;92943.00;;;;7386817;19;20136;-73
2023/10/30 09:39:27;;;;;;;7.55;6.85;;;;;14.20;92945.00;;;;7388012;19;20220;-75
2023/10/30 09:42:02;;;;;;;6.95;6.25;;;;;14.10;92941.00;;;;7388144;19;20216;-74
2023/10/30 09:44:30;;;;;;;8.75;6.30;;;;;13.80;92937.00;;;;7379456;19;20608;-74
2023/10/30 09:47:05;;;;;;;6.65;5.90;;;;;13.70;92939.00;;;;7384708;19;20144;-74
2023/10/30 09:49:40;;;;;;;6.43;5.82;;;;;13.50;92928.00;;;;7387177;19;20148;-76
2023/10/30 09:52:18;;;;;;;8.30;6.57;;;;;13.70;92926.00;;;;7387202;19;20229;-77
2023/10/30 09:54:52;;;;;;;8.07;6.78;;;;;14.00;92921.00;;;;7386189;19;20156;-74
2023/10/30 09:57:28;;;;;;;7.53;6.63;;;;;14.60;92930.00;;;;7386318;19;20136;-74
2023/10/30 09:59:58;;;;;;;7.43;6.45;;;;;14.30;92911.00;;;;7383931;19;20145;-74
2023/10/30 10:02:34;;;;;;;6.43;5.28;;;;;14.90;92915.00;;;;7385196;19;20156;-76
2023/10/30 10:05:02;;;;;;;6.60;5.55;;;;;15.00;92918.00;;;;7388050;19;20139;-73
2023/10/30 10:07:41;;;;;;;6.80;5.40;;;;;14.50;92917.00;;;;7385847;19;20628;-75
2023/10/30 10:10:14;;;;;;;6.97;5.80;;;;;13.90;92921.00;;;;7384752;19;20141;-77
2023/10/30 10:12:57;;;;;;;6.25;5.43;;;;;13.50;92917.00;;;;7383943;19;20162;-75
2023/10/30 10:15:26;;;;;;;7.03;5.28;;;;;13.60;92915.00;;;;7385197;19;20523;-74
2023/10/30 10:18:02;;;;;;;6.63;5.97;;;;;13.90;92916.00;;;;7387659;19;20132;-76
2023/10/30 10:20:30;;;;;;;8.93;5.68;;;;;13.90;92920.00;;;;7384497;19;20132;-75
2023/10/30 10:23:06;;;;;;;7.03;5.93;;;;;13.90;92917.00;;;;7385313;19;20607;-75
2023/10/30 10:25:33;;;;;;;5.88;5.28;;;;;13.90;92896.00;;;;7387875;19;20584;-76
2023/10/30 10:28:09;;;;;;;5.70;5.10;;;;;13.90;92891.00;;;;7386658;19;20157;-75
2023/10/30 10:30:38;;;;;;;6.55;5.32;;;;;13.70;92882.00;;;;7387139;19;20206;-77
2023/10/30 10:33:13;;;;;;;6.65;4.93;;;;;13.80;92885.00;;;;7386464;19;20604;-77
2023/10/30 10:35:53;;;;;;;6.90;4.97;;;;;13.70;92886.00;;;;7385155;19;20165;-76
2023/10/30 10:38:28;;;;;;;7.40;4.97;;;;;13.30;92875.00;;;;7386263;19;20204;-77
2023/10/30 10:41:05;;;;;;;6.38;5.38;;;;;13.00;92881.00;;;;7385545;19;20148;-75
2023/10/30 10:43:39;;;;;;;9.77;5.38;;;;;13.20;92861.00;;;;7386737;19;20192;-75
2023/10/30 10:46:14;;;;;;;6.80;5.40;;;;;13.20;92850.00;;;;7386069;19;20596;-78
2023/10/30 10:48:50;;;;;;;6.97;5.60;;;;;13.10;92850.00;;;;7385467;19;20182;-77
2023/10/30 10:51:34;;;;;;;6.15;5.05;;;;;13.10;92848.00;;;;7380364;19;20151;-76
2023/10/30 10:54:21;;;;;;;7.13;4.95;;;;;12.90;92856.00;;;;7383303;19;20671;-75
2023/10/30 10:56:52;;;;;;;6.07;5.15;;;;;12.80;92840.00;;;;7382147;19;20608;-76
2023/10/30 10:59:30;;;;;;;6.47;4.90;;;;;12.70;92851.00;;;;7384242;19;20187;-77
2023/10/30 11:01:59;;;;;;;6.60;5.25;;;;;12.50;92850.00;;;;7383841;19;20477;-77
2023/10/30 11:04:33;;;;;;;6.40;5.35;;;;;12.60;92853.00;;;;7384748;19;20128;-74
2023/10/30 11:07:07;;;;;;;7.18;5.03;;;;;12.50;92843.00;;;;7386436;19;20166;-77
2023/10/30 11:10:00;;;;;;;7.40;5.65;;;;;12.60;92847.00;;;;7384181;19;20894;-75
2023/10/30 11:12:55;;;;;;;6.28;5.45;;;;;12.60;92846.00;;;;7382349;19;20612;-74
2023/10/30 11:15:36;;;;;;;7.00;5.47;;;;;12.50;92848.00;;;;7385345;19;20172;-76
2023/10/30 11:18:19;;;;;;;5.78;5.18;;;;;12.40;92839.00;;;;7386952;19;20164;-75
2023/10/30 11:21:27;;;;;;;6.13;4.72;;;;;12.40;92841.00;;;;7386196;19;20133;-74
2023/10/30 11:23:57;;;;;;;6.30;5.05;;;;;12.30;92830.00;;;;7384473;19;20599;-76
2023/10/30 11:26:38;;;;;;;5.95;5.22;;;;;12.20;92835.00;;;;7384601;19;20148;-75
2023/10/30 11:29:10;;;;;;;9.57;5.60;;;;;12.10;92829.00;;;;7385144;19;20156;-77
2023/10/30 11:32:05;;;;;;;6.10;5.43;;;;;12.20;92820.00;;;;7384249;19;20149;-74
2023/10/30 11:34:38;;;;;;;5.90;5.20;;;;;12.30;92812.00;;;;7385120;19;20144;-72
2023/10/30 11:37:15;;;;;;;5.80;4.75;;;;;12.40;92804.00;;;;7384338;19;20161;-76
2023/10/30 11:39:53;;;;;;;8.82;5.53;;;;;12.10;92814.00;;;;7384673;19;20129;-77
2023/10/30 11:42:32;;;;;;;6.30;5.55;;;;;12.20;92797.00;;;;7385483;19;20149;-75
2023/10/30 11:45:26;;;;;;;7.05;5.05;;;;;12.10;92801.00;;;;7386210;19;20133;-75
2023/10/30 11:48:06;;;;;;;6.43;5.75;;;;;12.30;92793.00;;;;7386487;19;20136;-75
2023/10/30 11:50:45;;;;;;;7.70;5.35;;;;;12.30;92784.00;;;;7384775;19;20148;-76
2023/10/30 11:53:19;;;;;;;6.75;5.35;;;;;12.20;92781.00;;;;7383614;19;20606;-75
2023/10/30 11:55:54;;;;;;;6.63;4.97;;;;;12.40;92767.00;;;;7384928;19;20128;-75
2023/10/30 11:58:26;;;;;;;7.22;5.45;;;;;12.50;92767.00;;;;7386005;19;20145;-76
2023/10/30 12:01:01;;;;;;;5.82;4.78;;;;;12.50;92758.00;;;;7383644;19;20632;-75
2023/10/30 12:03:28;;;;;;;5.90;5.15;;;;;12.60;92745.00;;;;7386400;19;20205;-75
2023/10/30 12:06:03;;;;;;;5.47;4.85;;;;;12.60;92741.00;;;;7385594;19;20129;-73
2023/10/30 12:08:38;;;;;;;7.05;5.13;;;;;12.60;92750.00;;;;7385000;19;20152;-74
2023/10/30 12:11:16;;;;;;;6.63;5.25;;;;;12.70;92741.00;;;;7382760;19;20184;-74
2023/10/30 12:13:58;;;;;;;5.57;4.88;;;;;12.70;92727.00;;;;7383698;19;20145;-76
2023/10/30 12:16:30;;;;;;;7.05;5.05;;;;;12.70;92727.00;;;;7385597;19;20140;-76
2023/10/30 12:19:05;;;;;;;7.18;5.13;;;;;12.70;92718.00;;;;7385499;19;20589;-74
2023/10/30 12:21:38;;;;;;;8.02;4.90;;;;;12.70;92723.00;;;;7385440;19;20601;-76
2023/10/30 12:24:16;;;;;;;5.82;4.57;;;;;12.60;92717.00;;;;7386833;19;20228;-75
2023/10/30 12:26:48;;;;;;;5.82;4.60;;;;;12.60;92697.00;;;;7390598;19;20212;-74
2023/10/30 12:29:24;;;;;;;5.20;4.70;;;;;12.50;92693.00;;;;7391052;19;20167;-74
2023/10/30 12:32:02;;;;;;;7.20;4.53;;;;;12.60;92689.00;;;;7391379;19;20139;-75
2023/10/30 12:34:40;;;;;;;5.75;4.45;;;;;12.70;92690.00;;;;7387864;19;20469;-74
2023/10/30 12:37:23;;;;;;;5.60;4.75;;;;;12.70;92684.00;;;;7389672;19;20497;-73
2023/10/30 12:40:04;;;;;;;5.88;4.43;;;;;12.60;92678.00;;;;7390908;19;22385;-73
2023/10/30 12:42:40;;;;;;;10.00;5.40;;;;;12.80;92688.00;;;;7388487;19;20656;-73
2023/10/30 12:45:17;;;;;;;6.75;4.85;;;;;12.60;92685.00;;;;7390397;19;20140;-74
2023/10/30 12:47:59;;;;;;;6.15;4.45;;;;;12.80;92687.00;;;;7389257;19;20159;-75
2023/10/30 12:50:35;;;;;;;11.73;4.68;;;;;12.80;92677.00;;;;7388856;19;20133;-75
2023/10/30 12:53:14;;;;;;;6.28;4.25;;;;;12.90;92673.00;;;;7388306;19;20152;-73